Middlebury, Pennsylvania
Current Conditions -  °F | °C
As of 4:55 AM on Tuesday 21 Oct 2014 (Local Time) from KN38 Reporting Station
Overcast Overcast  
Wind Chill: 45°   Ceiling: 2100
Heat Index: 45°   Visibility: 10mi
Dew Point: 41°   Wind: 0mph
Humidity: 87%   Direction: NA
Pressure: 29.83"   Gusts: NA
Location:  41.8913°N, 77.3093°W
Report Text: KN38 210855Z AUTO 00000KT 10SM BKN021 OVC050 07/05 A2983 RMK AO2
Loading
Personal Weather Stations






























Interactive Weather Map
Tropical Storm Tracking
New forecast layout! Learn more

10-Day Weather Forecast

Advertisements
Track Severe Weather on mobile